sensor_id;sensor_type;location;lat;lon;timestamp;P1;durP1;ratioP1;P2;durP2;ratioP2
14088;SDS011;7120;52.890;6.040;2024-02-21T00:01:45;17.27;;;4.70;;
14088;SDS011;7120;52.890;6.040;2024-02-21T00:04:10;14.40;;;4.03;;
14088;SDS011;7120;52.890;6.040;2024-02-21T00:06:35;15.50;;;4.53;;
14088;SDS011;7120;52.890;6.040;2024-02-21T00:09:00;14.60;;;4.47;;
14088;SDS011;7120;52.890;6.040;2024-02-21T00:11:26;14.87;;;4.43;;
14088;SDS011;7120;52.890;6.040;2024-02-21T00:13:54;12.50;;;4.63;;
14088;SDS011;7120;52.890;6.040;2024-02-21T00:16:20;16.93;;;5.00;;
14088;SDS011;7120;52.890;6.040;2024-02-21T00:18:45;20.03;;;4.57;;
14088;SDS011;7120;52.890;6.040;2024-02-21T00:21:10;16.83;;;5.20;;
14088;SDS011;7120;52.890;6.040;2024-02-21T00:23:42;15.03;;;5.60;;
14088;SDS011;7120;52.890;6.040;2024-02-21T00:26:08;16.27;;;4.67;;
14088;SDS011;7120;52.890;6.040;2024-02-21T00:28:33;21.87;;;5.97;;
14088;SDS011;7120;52.890;6.040;2024-02-21T00:30:59;22.37;;;5.10;;
14088;SDS011;7120;52.890;6.040;2024-02-21T00:33:24;22.00;;;6.33;;
14088;SDS011;7120;52.890;6.040;2024-02-21T00:35:49;20.07;;;7.13;;
14088;SDS011;7120;52.890;6.040;2024-02-21T00:38:15;19.97;;;6.37;;
14088;SDS011;7120;52.890;6.040;2024-02-21T00:40:40;18.23;;;6.73;;
14088;SDS011;7120;52.890;6.040;2024-02-21T00:43:06;20.03;;;6.93;;
14088;SDS011;7120;52.890;6.040;2024-02-21T00:45:32;23.67;;;7.50;;
14088;SDS011;7120;52.890;6.040;2024-02-21T00:47:57;23.00;;;6.70;;
14088;SDS011;7120;52.890;6.040;2024-02-21T00:50:22;28.00;;;7.10;;
14088;SDS011;7120;52.890;6.040;2024-02-21T00:52:47;25.13;;;7.63;;
14088;SDS011;7120;52.890;6.040;2024-02-21T00:55:16;33.67;;;7.83;;
14088;SDS011;7120;52.890;6.040;2024-02-21T00:57:42;22.87;;;7.30;;
14088;SDS011;7120;52.890;6.040;2024-02-21T01:00:07;22.73;;;7.37;;
14088;SDS011;7120;52.890;6.040;2024-02-21T01:02:33;28.73;;;7.53;;
14088;SDS011;7120;52.890;6.040;2024-02-21T01:04:58;27.83;;;7.53;;
14088;SDS011;7120;52.890;6.040;2024-02-21T01:07:24;20.47;;;8.07;;
14088;SDS011;7120;52.890;6.040;2024-02-21T01:09:49;25.73;;;8.03;;
14088;SDS011;7120;52.890;6.040;2024-02-21T01:12:16;32.17;;;8.20;;
14088;SDS011;7120;52.890;6.040;2024-02-21T01:14:41;23.33;;;8.43;;
14088;SDS011;7120;52.890;6.040;2024-02-21T01:17:07;25.90;;;8.27;;
14088;SDS011;7120;52.890;6.040;2024-02-21T01:19:32;26.93;;;8.43;;
14088;SDS011;7120;52.890;6.040;2024-02-21T01:21:57;28.40;;;8.40;;
14088;SDS011;7120;52.890;6.040;2024-02-21T01:24:23;22.23;;;8.20;;
14088;SDS011;7120;52.890;6.040;2024-02-21T01:26:49;21.00;;;7.97;;
14088;SDS011;7120;52.890;6.040;2024-02-21T01:29:14;26.77;;;8.37;;
14088;SDS011;7120;52.890;6.040;2024-02-21T01:31:40;28.80;;;7.83;;
14088;SDS011;7120;52.890;6.040;2024-02-21T01:34:05;22.60;;;7.43;;
14088;SDS011;7120;52.890;6.040;2024-02-21T01:36:30;24.87;;;7.97;;
14088;SDS011;7120;52.890;6.040;2024-02-21T01:38:56;25.53;;;8.00;;
14088;SDS011;7120;52.890;6.040;2024-02-21T01:41:21;33.87;;;8.23;;
14088;SDS011;7120;52.890;6.040;2024-02-21T01:43:46;26.03;;;7.87;;
14088;SDS011;7120;52.890;6.040;2024-02-21T01:46:11;27.30;;;8.33;;
14088;SDS011;7120;52.890;6.040;2024-02-21T01:48:37;28.00;;;8.07;;
14088;SDS011;7120;52.890;6.040;2024-02-21T01:51:03;29.47;;;8.30;;
14088;SDS011;7120;52.890;6.040;2024-02-21T01:53:30;23.00;;;8.00;;
14088;SDS011;7120;52.890;6.040;2024-02-21T01:55:58;31.67;;;8.53;;
14088;SDS011;7120;52.890;6.040;2024-02-21T01:58:23;28.27;;;8.57;;
14088;SDS011;7120;52.890;6.040;2024-02-21T02:00:49;35.10;;;8.50;;
14088;SDS011;7120;52.890;6.040;2024-02-21T02:03:15;31.73;;;8.67;;
14088;SDS011;7120;52.890;6.040;2024-02-21T02:05:47;29.07;;;8.80;;
14088;SDS011;7120;52.890;6.040;2024-02-21T02:08:13;26.37;;;7.90;;
14088;SDS011;7120;52.890;6.040;2024-02-21T02:10:40;29.37;;;9.10;;
14088;SDS011;7120;52.890;6.040;2024-02-21T02:13:05;30.63;;;8.40;;
14088;SDS011;7120;52.890;6.040;2024-02-21T02:15:38;26.77;;;9.43;;
14088;SDS011;7120;52.890;6.040;2024-02-21T02:18:07;26.30;;;8.87;;
14088;SDS011;7120;52.890;6.040;2024-02-21T02:20:32;27.53;;;8.77;;
14088;SDS011;7120;52.890;6.040;2024-02-21T02:23:02;30.87;;;8.87;;
14088;SDS011;7120;52.890;6.040;2024-02-21T02:25:35;30.03;;;8.40;;
14088;SDS011;7120;52.890;6.040;2024-02-21T02:28:01;33.73;;;9.10;;
14088;SDS011;7120;52.890;6.040;2024-02-21T02:30:26;34.03;;;9.50;;
14088;SDS011;7120;52.890;6.040;2024-02-21T02:32:52;41.33;;;9.20;;
14088;SDS011;7120;52.890;6.040;2024-02-21T02:35:17;35.90;;;9.23;;
14088;SDS011;7120;52.890;6.040;2024-02-21T02:37:48;35.20;;;10.50;;
14088;SDS011;7120;52.890;6.040;2024-02-21T02:40:14;29.87;;;9.50;;
14088;SDS011;7120;52.890;6.040;2024-02-21T02:42:40;29.60;;;9.00;;
14088;SDS011;7120;52.890;6.040;2024-02-21T02:45:05;26.83;;;9.23;;
14088;SDS011;7120;52.890;6.040;2024-02-21T02:47:31;30.90;;;9.27;;
14088;SDS011;7120;52.890;6.040;2024-02-21T02:49:56;32.90;;;9.57;;
14088;SDS011;7120;52.890;6.040;2024-02-21T02:52:22;32.67;;;8.73;;
14088;SDS011;7120;52.890;6.040;2024-02-21T02:54:47;29.47;;;9.13;;
14088;SDS011;7120;52.890;6.040;2024-02-21T02:57:16;44.17;;;10.30;;
14088;SDS011;7120;52.890;6.040;2024-02-21T02:59:42;34.57;;;10.60;;
14088;SDS011;7120;52.890;6.040;2024-02-21T03:02:15;27.37;;;8.60;;
14088;SDS011;7120;52.890;6.040;2024-02-21T03:04:40;27.53;;;9.00;;
14088;SDS011;7120;52.890;6.040;2024-02-21T03:07:06;30.47;;;10.07;;
14088;SDS011;7120;52.890;6.040;2024-02-21T03:09:31;38.23;;;10.60;;
14088;SDS011;7120;52.890;6.040;2024-02-21T03:11:56;37.87;;;11.47;;
14088;SDS011;7120;52.890;6.040;2024-02-21T03:14:27;27.10;;;10.07;;
14088;SDS011;7120;52.890;6.040;2024-02-21T03:16:53;31.00;;;11.17;;
14088;SDS011;7120;52.890;6.040;2024-02-21T03:19:18;28.33;;;10.93;;
14088;SDS011;7120;52.890;6.040;2024-02-21T03:21:44;27.97;;;10.33;;
14088;SDS011;7120;52.890;6.040;2024-02-21T03:24:09;25.97;;;10.90;;
14088;SDS011;7120;52.890;6.040;2024-02-21T03:26:34;39.40;;;11.17;;
14088;SDS011;7120;52.890;6.040;2024-02-21T03:28:59;33.47;;;10.47;;
14088;SDS011;7120;52.890;6.040;2024-02-21T03:31:25;33.23;;;10.23;;
14088;SDS011;7120;52.890;6.040;2024-02-21T03:33:50;37.97;;;10.20;;
14088;SDS011;7120;52.890;6.040;2024-02-21T03:36:15;28.23;;;9.77;;
14088;SDS011;7120;52.890;6.040;2024-02-21T03:38:41;28.47;;;10.07;;
14088;SDS011;7120;52.890;6.040;2024-02-21T03:41:06;32.20;;;9.07;;
14088;SDS011;7120;52.890;6.040;2024-02-21T03:43:31;31.97;;;9.53;;
14088;SDS011;7120;52.890;6.040;2024-02-21T03:45:57;31.33;;;9.77;;
14088;SDS011;7120;52.890;6.040;2024-02-21T03:48:22;25.03;;;9.80;;
14088;SDS011;7120;52.890;6.040;2024-02-21T03:50:47;24.67;;;9.27;;
14088;SDS011;7120;52.890;6.040;2024-02-21T03:53:13;30.03;;;9.17;;
14088;SDS011;7120;52.890;6.040;2024-02-21T03:55:38;26.17;;;8.93;;
14088;SDS011;7120;52.890;6.040;2024-02-21T03:58:03;23.60;;;8.47;;
14088;SDS011;7120;52.890;6.040;2024-02-21T04:00:29;30.13;;;9.50;;
14088;SDS011;7120;52.890;6.040;2024-02-21T04:02:54;28.47;;;8.10;;
14088;SDS011;7120;52.890;6.040;2024-02-21T04:05:29;26.63;;;8.77;;
14088;SDS011;7120;52.890;6.040;2024-02-21T04:07:55;21.83;;;8.00;;
14088;SDS011;7120;52.890;6.040;2024-02-21T04:10:20;24.37;;;8.37;;
14088;SDS011;7120;52.890;6.040;2024-02-21T04:12:45;29.90;;;9.23;;
14088;SDS011;7120;52.890;6.040;2024-02-21T04:15:11;33.07;;;9.03;;
14088;SDS011;7120;52.890;6.040;2024-02-21T04:17:36;27.63;;;8.53;;
14088;SDS011;7120;52.890;6.040;2024-02-21T04:20:05;35.43;;;10.00;;
14088;SDS011;7120;52.890;6.040;2024-02-21T04:22:33;28.77;;;9.03;;
14088;SDS011;7120;52.890;6.040;2024-02-21T04:24:59;33.30;;;9.33;;
14088;SDS011;7120;52.890;6.040;2024-02-21T04:27:25;36.10;;;10.00;;
14088;SDS011;7120;52.890;6.040;2024-02-21T04:29:50;35.77;;;10.27;;
14088;SDS011;7120;52.890;6.040;2024-02-21T04:32:16;31.70;;;10.27;;
14088;SDS011;7120;52.890;6.040;2024-02-21T04:34:41;28.27;;;9.83;;
14088;SDS011;7120;52.890;6.040;2024-02-21T04:37:06;30.70;;;10.57;;
14088;SDS011;7120;52.890;6.040;2024-02-21T04:39:32;30.97;;;10.97;;
14088;SDS011;7120;52.890;6.040;2024-02-21T04:41:57;28.63;;;10.30;;
14088;SDS011;7120;52.890;6.040;2024-02-21T04:44:23;25.53;;;10.47;;
14088;SDS011;7120;52.890;6.040;2024-02-21T04:46:48;33.97;;;10.43;;
14088;SDS011;7120;52.890;6.040;2024-02-21T04:49:14;33.97;;;9.83;;
14088;SDS011;7120;52.890;6.040;2024-02-21T04:51:40;26.67;;;9.93;;
14088;SDS011;7120;52.890;6.040;2024-02-21T04:54:06;28.87;;;9.73;;
14088;SDS011;7120;52.890;6.040;2024-02-21T04:56:31;25.97;;;9.53;;
14088;SDS011;7120;52.890;6.040;2024-02-21T04:58:56;32.10;;;10.33;;
14088;SDS011;7120;52.890;6.040;2024-02-21T05:01:22;25.90;;;10.17;;
14088;SDS011;7120;52.890;6.040;2024-02-21T05:03:47;28.63;;;10.70;;
14088;SDS011;7120;52.890;6.040;2024-02-21T05:06:12;35.27;;;11.50;;
14088;SDS011;7120;52.890;6.040;2024-02-21T05:08:38;30.30;;;13.07;;
14088;SDS011;7120;52.890;6.040;2024-02-21T05:11:03;30.13;;;12.47;;
14088;SDS011;7120;52.890;6.040;2024-02-21T05:13:28;28.50;;;13.63;;
14088;SDS011;7120;52.890;6.040;2024-02-21T05:15:54;43.57;;;14.50;;
14088;SDS011;7120;52.890;6.040;2024-02-21T05:18:19;41.57;;;14.80;;
14088;SDS011;7120;52.890;6.040;2024-02-21T05:20:45;36.27;;;14.57;;
14088;SDS011;7120;52.890;6.040;2024-02-21T05:23:11;32.80;;;14.80;;
14088;SDS011;7120;52.890;6.040;2024-02-21T05:25:36;38.17;;;14.30;;
14088;SDS011;7120;52.890;6.040;2024-02-21T05:28:02;36.67;;;14.00;;
14088;SDS011;7120;52.890;6.040;2024-02-21T05:30:28;41.10;;;13.50;;
14088;SDS011;7120;52.890;6.040;2024-02-21T05:32:54;39.33;;;14.87;;
14088;SDS011;7120;52.890;6.040;2024-02-21T05:35:19;43.27;;;12.77;;
14088;SDS011;7120;52.890;6.040;2024-02-21T05:37:46;38.13;;;13.63;;
14088;SDS011;7120;52.890;6.040;2024-02-21T05:40:13;35.17;;;12.13;;
14088;SDS011;7120;52.890;6.040;2024-02-21T05:42:39;34.43;;;13.20;;
14088;SDS011;7120;52.890;6.040;2024-02-21T05:45:04;25.10;;;11.53;;
14088;SDS011;7120;52.890;6.040;2024-02-21T05:47:30;33.33;;;10.07;;
14088;SDS011;7120;52.890;6.040;2024-02-21T05:49:55;39.83;;;9.93;;
14088;SDS011;7120;52.890;6.040;2024-02-21T05:52:21;34.60;;;9.90;;
14088;SDS011;7120;52.890;6.040;2024-02-21T05:54:47;39.07;;;9.40;;
14088;SDS011;7120;52.890;6.040;2024-02-21T05:57:12;36.47;;;9.93;;
14088;SDS011;7120;52.890;6.040;2024-02-21T05:59:39;35.43;;;9.70;;
14088;SDS011;7120;52.890;6.040;2024-02-21T06:02:05;40.07;;;10.77;;
14088;SDS011;7120;52.890;6.040;2024-02-21T06:04:30;32.30;;;9.33;;
14088;SDS011;7120;52.890;6.040;2024-02-21T06:06:55;36.50;;;9.47;;
14088;SDS011;7120;52.890;6.040;2024-02-21T06:09:21;35.37;;;10.37;;
14088;SDS011;7120;52.890;6.040;2024-02-21T06:11:46;44.30;;;11.10;;
14088;SDS011;7120;52.890;6.040;2024-02-21T06:14:13;30.47;;;8.33;;
14088;SDS011;7120;52.890;6.040;2024-02-21T06:16:38;29.17;;;9.83;;
14088;SDS011;7120;52.890;6.040;2024-02-21T06:19:04;31.37;;;10.43;;
14088;SDS011;7120;52.890;6.040;2024-02-21T06:21:29;33.50;;;10.43;;
14088;SDS011;7120;52.890;6.040;2024-02-21T06:23:55;45.17;;;10.30;;
14088;SDS011;7120;52.890;6.040;2024-02-21T06:26:20;31.00;;;10.20;;
14088;SDS011;7120;52.890;6.040;2024-02-21T06:28:45;30.47;;;9.30;;
14088;SDS011;7120;52.890;6.040;2024-02-21T06:31:11;42.90;;;9.70;;
14088;SDS011;7120;52.890;6.040;2024-02-21T06:33:37;37.30;;;9.73;;
14088;SDS011;7120;52.890;6.040;2024-02-21T06:36:02;34.20;;;9.67;;
14088;SDS011;7120;52.890;6.040;2024-02-21T06:38:28;34.03;;;9.00;;
14088;SDS011;7120;52.890;6.040;2024-02-21T06:40:53;31.17;;;9.47;;
14088;SDS011;7120;52.890;6.040;2024-02-21T06:43:20;25.73;;;8.80;;
14088;SDS011;7120;52.890;6.040;2024-02-21T06:45:46;24.33;;;9.37;;
14088;SDS011;7120;52.890;6.040;2024-02-21T06:48:15;25.20;;;9.57;;
14088;SDS011;7120;52.890;6.040;2024-02-21T06:50:40;22.50;;;10.77;;
14088;SDS011;7120;52.890;6.040;2024-02-21T06:53:06;24.97;;;9.30;;
14088;SDS011;7120;52.890;6.040;2024-02-21T06:55:31;25.93;;;8.90;;
14088;SDS011;7120;52.890;6.040;2024-02-21T06:57:56;25.37;;;9.40;;
14088;SDS011;7120;52.890;6.040;2024-02-21T07:00:22;19.00;;;8.33;;
14088;SDS011;7120;52.890;6.040;2024-02-21T07:02:48;21.00;;;9.10;;
14088;SDS011;7120;52.890;6.040;2024-02-21T07:05:13;25.00;;;9.27;;
14088;SDS011;7120;52.890;6.040;2024-02-21T07:07:39;25.03;;;9.33;;
14088;SDS011;7120;52.890;6.040;2024-02-21T07:10:05;22.37;;;9.20;;
14088;SDS011;7120;52.890;6.040;2024-02-21T07:12:31;25.27;;;10.07;;
14088;SDS011;7120;52.890;6.040;2024-02-21T07:14:56;21.97;;;10.33;;
14088;SDS011;7120;52.890;6.040;2024-02-21T07:17:22;23.37;;;9.83;;
14088;SDS011;7120;52.890;6.040;2024-02-21T07:19:47;25.77;;;10.57;;
14088;SDS011;7120;52.890;6.040;2024-02-21T07:22:12;21.50;;;9.80;;
14088;SDS011;7120;52.890;6.040;2024-02-21T07:24:38;20.30;;;9.83;;
14088;SDS011;7120;52.890;6.040;2024-02-21T07:27:03;18.57;;;8.83;;
14088;SDS011;7120;52.890;6.040;2024-02-21T07:29:29;17.53;;;8.10;;
14088;SDS011;7120;52.890;6.040;2024-02-21T07:31:55;25.93;;;9.90;;
14088;SDS011;7120;52.890;6.040;2024-02-21T07:34:21;22.13;;;9.30;;
14088;SDS011;7120;52.890;6.040;2024-02-21T07:36:46;23.20;;;10.23;;
14088;SDS011;7120;52.890;6.040;2024-02-21T07:39:11;24.33;;;11.67;;
14088;SDS011;7120;52.890;6.040;2024-02-21T07:41:37;25.33;;;12.17;;
14088;SDS011;7120;52.890;6.040;2024-02-21T07:44:04;21.50;;;14.43;;
14088;SDS011;7120;52.890;6.040;2024-02-21T07:46:29;29.43;;;16.00;;
14088;SDS011;7120;52.890;6.040;2024-02-21T07:48:55;26.80;;;16.97;;
14088;SDS011;7120;52.890;6.040;2024-02-21T07:51:20;27.80;;;17.27;;
14088;SDS011;7120;52.890;6.040;2024-02-21T07:53:46;22.77;;;17.93;;
14088;SDS011;7120;52.890;6.040;2024-02-21T07:56:12;28.67;;;18.77;;
14088;SDS011;7120;52.890;6.040;2024-02-21T07:58:38;25.10;;;18.93;;
14088;SDS011;7120;52.890;6.040;2024-02-21T08:01:04;25.47;;;19.60;;
14088;SDS011;7120;52.890;6.040;2024-02-21T08:03:30;30.77;;;19.60;;
14088;SDS011;7120;52.890;6.040;2024-02-21T08:05:55;25.70;;;19.13;;
14088;SDS011;7120;52.890;6.040;2024-02-21T08:08:20;28.40;;;19.90;;
14088;SDS011;7120;52.890;6.040;2024-02-21T08:10:47;27.17;;;21.20;;
14088;SDS011;7120;52.890;6.040;2024-02-21T08:13:13;26.63;;;19.83;;
14088;SDS011;7120;52.890;6.040;2024-02-21T08:15:38;29.63;;;20.53;;
14088;SDS011;7120;52.890;6.040;2024-02-21T08:18:05;24.70;;;20.17;;
14088;SDS011;7120;52.890;6.040;2024-02-21T08:20:30;24.60;;;19.50;;
14088;SDS011;7120;52.890;6.040;2024-02-21T08:22:56;27.37;;;18.90;;
14088;SDS011;7120;52.890;6.040;2024-02-21T08:25:21;23.67;;;18.00;;
14088;SDS011;7120;52.890;6.040;2024-02-21T08:27:46;25.53;;;18.77;;
14088;SDS011;7120;52.890;6.040;2024-02-21T08:30:12;30.13;;;18.97;;
14088;SDS011;7120;52.890;6.040;2024-02-21T08:32:37;25.60;;;19.67;;
14088;SDS011;7120;52.890;6.040;2024-02-21T08:35:03;22.70;;;18.73;;
14088;SDS011;7120;52.890;6.040;2024-02-21T08:37:30;24.77;;;18.77;;
14088;SDS011;7120;52.890;6.040;2024-02-21T08:39:55;22.20;;;18.90;;
14088;SDS011;7120;52.890;6.040;2024-02-21T08:42:21;22.80;;;19.03;;
14088;SDS011;7120;52.890;6.040;2024-02-21T08:44:46;28.90;;;18.63;;
14088;SDS011;7120;52.890;6.040;2024-02-21T08:47:11;23.60;;;18.57;;
14088;SDS011;7120;52.890;6.040;2024-02-21T08:49:40;23.47;;;18.90;;
14088;SDS011;7120;52.890;6.040;2024-02-21T08:52:05;24.87;;;19.10;;
14088;SDS011;7120;52.890;6.040;2024-02-21T08:54:31;29.00;;;18.67;;
14088;SDS011;7120;52.890;6.040;2024-02-21T08:56:57;27.40;;;18.87;;
14088;SDS011;7120;52.890;6.040;2024-02-21T08:59:23;27.90;;;20.70;;
14088;SDS011;7120;52.890;6.040;2024-02-21T09:01:48;22.63;;;20.13;;
14088;SDS011;7120;52.890;6.040;2024-02-21T09:04:13;32.93;;;22.13;;
14088;SDS011;7120;52.890;6.040;2024-02-21T09:06:39;30.13;;;23.47;;
14088;SDS011;7120;52.890;6.040;2024-02-21T09:09:08;31.73;;;24.83;;
14088;SDS011;7120;52.890;6.040;2024-02-21T09:11:34;32.97;;;24.90;;
14088;SDS011;7120;52.890;6.040;2024-02-21T09:14:00;35.70;;;24.30;;
14088;SDS011;7120;52.890;6.040;2024-02-21T09:16:25;31.40;;;25.30;;
14088;SDS011;7120;52.890;6.040;2024-02-21T09:18:51;31.43;;;24.03;;
14088;SDS011;7120;52.890;6.040;2024-02-21T09:21:17;33.00;;;23.70;;
14088;SDS011;7120;52.890;6.040;2024-02-21T09:23:43;31.70;;;23.60;;
14088;SDS011;7120;52.890;6.040;2024-02-21T09:26:09;32.13;;;23.60;;
14088;SDS011;7120;52.890;6.040;2024-02-21T09:28:38;27.53;;;22.33;;
14088;SDS011;7120;52.890;6.040;2024-02-21T09:31:04;25.50;;;19.87;;
14088;SDS011;7120;52.890;6.040;2024-02-21T09:33:29;24.70;;;19.03;;
14088;SDS011;7120;52.890;6.040;2024-02-21T09:35:55;26.57;;;18.07;;
14088;SDS011;7120;52.890;6.040;2024-02-21T09:38:20;22.27;;;17.53;;
14088;SDS011;7120;52.890;6.040;2024-02-21T09:40:46;22.10;;;18.43;;
14088;SDS011;7120;52.890;6.040;2024-02-21T09:43:12;25.20;;;19.13;;
14088;SDS011;7120;52.890;6.040;2024-02-21T09:45:42;25.47;;;19.80;;
14088;SDS011;7120;52.890;6.040;2024-02-21T09:48:37;25.10;;;21.17;;
14088;SDS011;7120;52.890;6.040;2024-02-21T09:51:15;28.30;;;21.73;;
14088;SDS011;7120;52.890;6.040;2024-02-21T09:53:41;29.17;;;23.73;;
14088;SDS011;7120;52.890;6.040;2024-02-21T09:56:08;32.13;;;25.37;;
14088;SDS011;7120;52.890;6.040;2024-02-21T09:58:34;30.03;;;23.47;;
14088;SDS011;7120;52.890;6.040;2024-02-21T10:00:59;29.37;;;22.07;;
14088;SDS011;7120;52.890;6.040;2024-02-21T10:03:25;27.90;;;21.83;;
14088;SDS011;7120;52.890;6.040;2024-02-21T10:05:50;25.63;;;19.70;;
14088;SDS011;7120;52.890;6.040;2024-02-21T10:08:16;34.17;;;22.03;;
14088;SDS011;7120;52.890;6.040;2024-02-21T10:10:42;23.53;;;20.33;;
14088;SDS011;7120;52.890;6.040;2024-02-21T10:13:09;28.50;;;21.83;;
14088;SDS011;7120;52.890;6.040;2024-02-21T10:15:35;28.17;;;21.73;;
14088;SDS011;7120;52.890;6.040;2024-02-21T10:18:01;27.70;;;20.47;;
14088;SDS011;7120;52.890;6.040;2024-02-21T10:20:28;27.10;;;22.13;;
14088;SDS011;7120;52.890;6.040;2024-02-21T10:23:00;25.23;;;21.17;;
14088;SDS011;7120;52.890;6.040;2024-02-21T10:25:33;27.73;;;20.00;;
14088;SDS011;7120;52.890;6.040;2024-02-21T10:28:06;24.33;;;19.40;;
14088;SDS011;7120;52.890;6.040;2024-02-21T10:30:31;24.33;;;19.00;;
14088;SDS011;7120;52.890;6.040;2024-02-21T10:32:57;26.30;;;19.13;;
14088;SDS011;7120;52.890;6.040;2024-02-21T10:35:26;23.13;;;18.23;;
14088;SDS011;7120;52.890;6.040;2024-02-21T10:37:52;22.73;;;18.17;;
14088;SDS011;7120;52.890;6.040;2024-02-21T10:40:21;21.47;;;17.83;;
14088;SDS011;7120;52.890;6.040;2024-02-21T10:42:52;21.40;;;16.90;;
14088;SDS011;7120;52.890;6.040;2024-02-21T10:45:26;22.83;;;16.63;;
14088;SDS011;7120;52.890;6.040;2024-02-21T10:48:11;21.03;;;16.30;;
14088;SDS011;7120;52.890;6.040;2024-02-21T10:53:12;21.27;;;18.00;;
14088;SDS011;7120;52.890;6.040;2024-02-21T10:56:08;20.90;;;17.20;;
14088;SDS011;7120;52.890;6.040;2024-02-21T10:58:43;19.27;;;17.17;;
14088;SDS011;7120;52.890;6.040;2024-02-21T11:01:10;19.37;;;15.43;;
14088;SDS011;7120;52.890;6.040;2024-02-21T11:03:39;21.93;;;16.10;;
14088;SDS011;7120;52.890;6.040;2024-02-21T11:06:10;16.07;;;14.40;;
14088;SDS011;7120;52.890;6.040;2024-02-21T11:08:36;16.83;;;14.47;;
14088;SDS011;7120;52.890;6.040;2024-02-21T11:11:01;17.60;;;14.13;;
14088;SDS011;7120;52.890;6.040;2024-02-21T11:13:30;19.40;;;17.30;;
14088;SDS011;7120;52.890;6.040;2024-02-21T11:16:10;16.70;;;13.90;;
14088;SDS011;7120;52.890;6.040;2024-02-21T11:18:37;15.27;;;13.50;;
14088;SDS011;7120;52.890;6.040;2024-02-21T11:21:03;17.37;;;14.60;;
14088;SDS011;7120;52.890;6.040;2024-02-21T11:23:31;17.27;;;14.10;;
14088;SDS011;7120;52.890;6.040;2024-02-21T11:26:10;14.60;;;12.80;;
14088;SDS011;7120;52.890;6.040;2024-02-21T11:28:35;13.60;;;12.20;;
14088;SDS011;7120;52.890;6.040;2024-02-21T11:31:12;15.07;;;12.87;;
14088;SDS011;7120;52.890;6.040;2024-02-21T11:33:42;15.37;;;12.73;;
14088;SDS011;7120;52.890;6.040;2024-02-21T11:36:11;17.63;;;12.47;;
14088;SDS011;7120;52.890;6.040;2024-02-21T11:38:49;14.83;;;11.43;;
14088;SDS011;7120;52.890;6.040;2024-02-21T11:41:15;12.70;;;10.77;;
14088;SDS011;7120;52.890;6.040;2024-02-21T11:43:41;14.03;;;11.33;;
14088;SDS011;7120;52.890;6.040;2024-02-21T11:46:06;14.37;;;10.70;;
14088;SDS011;7120;52.890;6.040;2024-02-21T11:48:32;17.13;;;12.00;;
14088;SDS011;7120;52.890;6.040;2024-02-21T11:50:57;17.83;;;12.40;;
14088;SDS011;7120;52.890;6.040;2024-02-21T11:53:23;16.23;;;11.33;;
14088;SDS011;7120;52.890;6.040;2024-02-21T11:55:49;17.83;;;12.30;;
14088;SDS011;7120;52.890;6.040;2024-02-21T11:58:17;16.20;;;11.17;;
14088;SDS011;7120;52.890;6.040;2024-02-21T12:00:43;14.43;;;10.93;;
14088;SDS011;7120;52.890;6.040;2024-02-21T12:03:08;12.30;;;10.70;;
14088;SDS011;7120;52.890;6.040;2024-02-21T12:05:33;12.03;;;9.93;;
14088;SDS011;7120;52.890;6.040;2024-02-21T12:07:59;10.07;;;8.73;;
14088;SDS011;7120;52.890;6.040;2024-02-21T12:10:25;10.10;;;8.20;;
14088;SDS011;7120;52.890;6.040;2024-02-21T12:12:52;11.40;;;8.50;;
14088;SDS011;7120;52.890;6.040;2024-02-21T12:15:19;9.27;;;8.30;;
14088;SDS011;7120;52.890;6.040;2024-02-21T12:17:46;11.90;;;9.13;;
14088;SDS011;7120;52.890;6.040;2024-02-21T12:20:11;10.13;;;8.50;;
14088;SDS011;7120;52.890;6.040;2024-02-21T12:22:37;9.37;;;7.67;;
14088;SDS011;7120;52.890;6.040;2024-02-21T12:25:15;11.27;;;8.33;;
14088;SDS011;7120;52.890;6.040;2024-02-21T12:27:47;9.77;;;8.30;;
14088;SDS011;7120;52.890;6.040;2024-02-21T12:30:14;11.47;;;8.90;;
14088;SDS011;7120;52.890;6.040;2024-02-21T12:32:39;9.87;;;8.73;;
14088;SDS011;7120;52.890;6.040;2024-02-21T12:35:06;11.93;;;8.90;;
14088;SDS011;7120;52.890;6.040;2024-02-21T12:37:32;8.87;;;7.83;;
14088;SDS011;7120;52.890;6.040;2024-02-21T12:39:58;10.90;;;7.77;;
14088;SDS011;7120;52.890;6.040;2024-02-21T12:42:23;8.77;;;7.23;;
14088;SDS011;7120;52.890;6.040;2024-02-21T12:44:50;8.37;;;6.97;;
14088;SDS011;7120;52.890;6.040;2024-02-21T12:47:17;10.73;;;7.40;;
14088;SDS011;7120;52.890;6.040;2024-02-21T12:49:44;7.80;;;6.67;;
14088;SDS011;7120;52.890;6.040;2024-02-21T12:52:10;9.37;;;6.50;;
14088;SDS011;7120;52.890;6.040;2024-02-21T12:54:36;6.90;;;6.10;;
14088;SDS011;7120;52.890;6.040;2024-02-21T12:57:01;9.47;;;6.33;;
14088;SDS011;7120;52.890;6.040;2024-02-21T12:59:28;9.33;;;6.83;;
14088;SDS011;7120;52.890;6.040;2024-02-21T13:01:56;7.60;;;6.03;;
14088;SDS011;7120;52.890;6.040;2024-02-21T13:04:21;7.70;;;6.53;;
14088;SDS011;7120;52.890;6.040;2024-02-21T13:06:47;7.73;;;6.27;;
14088;SDS011;7120;52.890;6.040;2024-02-21T13:09:13;7.53;;;6.60;;
14088;SDS011;7120;52.890;6.040;2024-02-21T13:11:39;7.60;;;6.80;;
14088;SDS011;7120;52.890;6.040;2024-02-21T13:14:06;7.00;;;6.30;;
14088;SDS011;7120;52.890;6.040;2024-02-21T13:16:31;6.33;;;5.70;;
14088;SDS011;7120;52.890;6.040;2024-02-21T13:18:59;6.70;;;6.00;;
14088;SDS011;7120;52.890;6.040;2024-02-21T13:21:24;6.80;;;6.10;;
14088;SDS011;7120;52.890;6.040;2024-02-21T13:23:49;6.53;;;5.80;;
14088;SDS011;7120;52.890;6.040;2024-02-21T13:26:15;7.20;;;6.53;;
14088;SDS011;7120;52.890;6.040;2024-02-21T13:28:43;7.07;;;6.17;;
14088;SDS011;7120;52.890;6.040;2024-02-21T13:31:14;10.13;;;6.30;;
14088;SDS011;7120;52.890;6.040;2024-02-21T13:33:43;7.37;;;6.73;;
14088;SDS011;7120;52.890;6.040;2024-02-21T13:36:11;8.63;;;7.17;;
14088;SDS011;7120;52.890;6.040;2024-02-21T13:38:37;10.73;;;7.43;;
14088;SDS011;7120;52.890;6.040;2024-02-21T13:41:03;8.03;;;6.93;;
14088;SDS011;7120;52.890;6.040;2024-02-21T13:43:30;8.00;;;7.20;;
14088;SDS011;7120;52.890;6.040;2024-02-21T13:45:59;8.30;;;7.43;;
14088;SDS011;7120;52.890;6.040;2024-02-21T13:48:30;8.83;;;7.20;;
14088;SDS011;7120;52.890;6.040;2024-02-21T13:50:56;10.27;;;7.33;;
14088;SDS011;7120;52.890;6.040;2024-02-21T13:53:21;8.67;;;7.77;;
14088;SDS011;7120;52.890;6.040;2024-02-21T13:55:48;8.83;;;7.93;;
14088;SDS011;7120;52.890;6.040;2024-02-21T13:58:13;12.97;;;8.53;;
14088;SDS011;7120;52.890;6.040;2024-02-21T14:00:40;11.10;;;7.37;;
14088;SDS011;7120;52.890;6.040;2024-02-21T14:03:05;11.67;;;7.87;;
14088;SDS011;7120;52.890;6.040;2024-02-21T14:05:30;8.53;;;7.73;;
14088;SDS011;7120;52.890;6.040;2024-02-21T14:07:56;8.20;;;7.40;;
14088;SDS011;7120;52.890;6.040;2024-02-21T14:10:21;26.47;;;18.40;;
14088;SDS011;7120;52.890;6.040;2024-02-21T14:12:47;10.00;;;7.73;;
14088;SDS011;7120;52.890;6.040;2024-02-21T14:15:15;9.03;;;7.53;;
14088;SDS011;7120;52.890;6.040;2024-02-21T14:17:41;7.67;;;6.87;;
14088;SDS011;7120;52.890;6.040;2024-02-21T14:20:07;10.50;;;7.40;;
14088;SDS011;7120;52.890;6.040;2024-02-21T14:22:33;8.10;;;7.30;;
14088;SDS011;7120;52.890;6.040;2024-02-21T14:24:59;8.40;;;7.10;;
14088;SDS011;7120;52.890;6.040;2024-02-21T14:27:25;8.70;;;6.87;;
14088;SDS011;7120;52.890;6.040;2024-02-21T14:29:50;8.17;;;6.97;;
14088;SDS011;7120;52.890;6.040;2024-02-21T14:32:16;9.67;;;7.37;;
14088;SDS011;7120;52.890;6.040;2024-02-21T14:34:41;8.10;;;7.10;;
14088;SDS011;7120;52.890;6.040;2024-02-21T14:37:06;8.63;;;6.67;;
14088;SDS011;7120;52.890;6.040;2024-02-21T14:39:32;9.37;;;7.00;;
14088;SDS011;7120;52.890;6.040;2024-02-21T14:41:59;7.83;;;6.80;;